Fort Wayne International Airport
KFWA : now visible

Airfield :











YOU CAN JOIN US ON...

 
LOGIN :

Register | Disclaimer

   EN    FR    IT 

 









Legend :    VFR   Marginal VFR   IFR   Intensive IFR   Very Intensive IFR
Visi :
Ceiling :
>= 8 km
>= 3000ft
5 to 8 km
1000 to 3000 ft
1500m to 5 km
500 to 1000 ft
800 to 1500m
200 to 500 ft
< 800m
< 200 ft
Symbols :   Thunderstorms  Fog  Heavy snow  Heavy precipitations  Wind > 20 kt






- Airport Elevation : 814 ft
- IATA code : FWA


KFWA - Fort Wayne International

CURRENT METAR :
  • 220354Z 28014G24KT 10SM SCT012 OVC020 07/06 A2992 RMK AO2 DZB03E29 SLP135 P0000 T00720056

EXPIRED METARs :
  • 220312Z 27011KT 8SM -DZ BKN010 OVC016 08/07 A2990 RMK AO2 DZB03 CIG 008V013 P0000 T00830067
  • 220254Z 27014G26KT 6SM BR OVC017 08/07 A2990 RMK AO2 PK WND 26029/0217 SLP127 T00830067 51021
  • 220154Z 27012G24KT 10SM OVC018 09/07 A2988 RMK AO2 PK WND 28033/0130 SLP121 T00940072

TAF KFWA
Valid from the 22 at 03:00 until the 23 at 00:00 UTC


220241Z 2203/2224 26015KT P6SM -DZ OVC015
TEMPO 2204/2207 4SM -DZ OVC009
FM220700 30013KT P6SM OVC015
FM221400 32009KT P6SM BKN025
FM221600 32008KT P6SM SCT025



MET'MAP, your aeronautical weather chart ! - Copyright ORBIFLY December 2007 - Disclaimer

ORBIFLY MET'MAP TEAM :

Programming & Development : Alexandra Zaïnal
Concept & Development : Baudouin d'Aumeries
Co-Development & Prog : Marc-Olivier Méhu
Technical & hardware support : Manuel Goepfert

Contact : metmap@orbifly.com




SOURCES & CREDITS :

   NOAA       Earth
Advisory